sensor_id;sensor_type;location;lat;lon;timestamp;P1;durP1;ratioP1;P2;durP2;ratioP2
33184;SDS011;19550;42.872;25.494;2023-07-31T00:01:39;10.02;;;8.95;;
33184;SDS011;19550;42.872;25.494;2023-07-31T00:04:06;8.80;;;8.00;;
33184;SDS011;19550;42.872;25.494;2023-07-31T00:06:33;13.23;;;8.70;;
33184;SDS011;19550;42.872;25.494;2023-07-31T00:09:00;9.57;;;8.43;;
33184;SDS011;19550;42.872;25.494;2023-07-31T00:11:26;10.40;;;8.55;;
33184;SDS011;19550;42.872;25.494;2023-07-31T00:13:55;12.52;;;8.90;;
33184;SDS011;19550;42.872;25.494;2023-07-31T00:16:21;12.95;;;9.70;;
33184;SDS011;19550;42.872;25.494;2023-07-31T00:18:48;11.38;;;9.52;;
33184;SDS011;19550;42.872;25.494;2023-07-31T00:21:15;10.88;;;9.60;;
33184;SDS011;19550;42.872;25.494;2023-07-31T00:23:42;10.30;;;9.30;;
33184;SDS011;19550;42.872;25.494;2023-07-31T00:26:09;11.35;;;9.48;;
33184;SDS011;19550;42.872;25.494;2023-07-31T00:28:35;16.58;;;10.68;;
33184;SDS011;19550;42.872;25.494;2023-07-31T00:31:04;13.20;;;10.20;;
33184;SDS011;19550;42.872;25.494;2023-07-31T00:33:31;12.13;;;9.95;;
33184;SDS011;19550;42.872;25.494;2023-07-31T00:35:58;11.48;;;9.57;;
33184;SDS011;19550;42.872;25.494;2023-07-31T00:38:24;11.65;;;10.55;;
33184;SDS011;19550;42.872;25.494;2023-07-31T00:40:51;11.27;;;9.07;;
33184;SDS011;19550;42.872;25.494;2023-07-31T00:43:18;16.05;;;11.35;;
33184;SDS011;19550;42.872;25.494;2023-07-31T00:45:45;10.60;;;9.57;;
33184;SDS011;19550;42.872;25.494;2023-07-31T00:48:13;10.95;;;9.70;;
33184;SDS011;19550;42.872;25.494;2023-07-31T00:50:40;11.60;;;10.50;;
33184;SDS011;19550;42.872;25.494;2023-07-31T00:53:07;13.38;;;10.85;;
33184;SDS011;19550;42.872;25.494;2023-07-31T00:55:34;15.48;;;11.43;;
33184;SDS011;19550;42.872;25.494;2023-07-31T00:58:01;14.85;;;11.70;;
33184;SDS011;19550;42.872;25.494;2023-07-31T01:00:28;12.60;;;10.90;;
33184;SDS011;19550;42.872;25.494;2023-07-31T01:02:55;13.52;;;12.15;;
33184;SDS011;19550;42.872;25.494;2023-07-31T01:05:24;15.13;;;11.98;;
33184;SDS011;19550;42.872;25.494;2023-07-31T01:07:59;17.85;;;12.98;;
33184;SDS011;19550;42.872;25.494;2023-07-31T01:10:33;12.90;;;11.75;;
33184;SDS011;19550;42.872;25.494;2023-07-31T01:13:08;16.23;;;13.10;;
33184;SDS011;19550;42.872;25.494;2023-07-31T01:15:36;14.18;;;11.93;;
33184;SDS011;19550;42.872;25.494;2023-07-31T01:18:03;13.73;;;12.43;;
33184;SDS011;19550;42.872;25.494;2023-07-31T01:20:32;18.70;;;12.63;;
33184;SDS011;19550;42.872;25.494;2023-07-31T01:25:56;13.48;;;12.27;;
33184;SDS011;19550;42.872;25.494;2023-07-31T01:28:40;13.57;;;12.23;;
33184;SDS011;19550;42.872;25.494;2023-07-31T01:31:14;13.68;;;12.38;;
33184;SDS011;19550;42.872;25.494;2023-07-31T01:33:44;13.85;;;12.43;;
33184;SDS011;19550;42.872;25.494;2023-07-31T01:36:12;13.98;;;12.73;;
33184;SDS011;19550;42.872;25.494;2023-07-31T01:38:40;14.25;;;12.80;;
33184;SDS011;19550;42.872;25.494;2023-07-31T01:41:08;14.10;;;12.55;;
33184;SDS011;19550;42.872;25.494;2023-07-31T01:43:35;14.35;;;12.85;;
33184;SDS011;19550;42.872;25.494;2023-07-31T01:46:01;14.88;;;13.35;;
33184;SDS011;19550;42.872;25.494;2023-07-31T01:48:28;15.52;;;13.93;;
33184;SDS011;19550;42.872;25.494;2023-07-31T01:51:00;15.70;;;14.20;;
33184;SDS011;19550;42.872;25.494;2023-07-31T01:53:28;15.85;;;14.25;;
33184;SDS011;19550;42.872;25.494;2023-07-31T01:55:55;17.38;;;15.20;;
33184;SDS011;19550;42.872;25.494;2023-07-31T01:58:23;17.10;;;15.52;;
33184;SDS011;19550;42.872;25.494;2023-07-31T02:00:50;17.33;;;15.57;;
33184;SDS011;19550;42.872;25.494;2023-07-31T02:03:17;17.90;;;16.20;;
33184;SDS011;19550;42.872;25.494;2023-07-31T02:05:44;19.63;;;17.52;;
33184;SDS011;19550;42.872;25.494;2023-07-31T02:08:11;19.90;;;17.98;;
33184;SDS011;19550;42.872;25.494;2023-07-31T02:10:38;20.83;;;18.80;;
33184;SDS011;19550;42.872;25.494;2023-07-31T02:13:05;19.45;;;17.60;;
33184;SDS011;19550;42.872;25.494;2023-07-31T02:15:34;19.30;;;17.50;;
33184;SDS011;19550;42.872;25.494;2023-07-31T02:18:01;22.00;;;19.75;;
33184;SDS011;19550;42.872;25.494;2023-07-31T02:20:28;21.88;;;19.70;;
33184;SDS011;19550;42.872;25.494;2023-07-31T02:22:55;22.17;;;18.85;;
33184;SDS011;19550;42.872;25.494;2023-07-31T02:25:21;21.27;;;18.73;;
33184;SDS011;19550;42.872;25.494;2023-07-31T02:27:48;20.23;;;18.15;;
33184;SDS011;19550;42.872;25.494;2023-07-31T02:30:15;20.27;;;18.48;;
33184;SDS011;19550;42.872;25.494;2023-07-31T02:32:43;21.15;;;19.05;;
33184;SDS011;19550;42.872;25.494;2023-07-31T02:35:10;20.48;;;18.65;;
33184;SDS011;19550;42.872;25.494;2023-07-31T02:37:40;21.17;;;19.02;;
33184;SDS011;19550;42.872;25.494;2023-07-31T02:40:07;21.00;;;19.00;;
33184;SDS011;19550;42.872;25.494;2023-07-31T02:42:35;24.02;;;21.42;;
33184;SDS011;19550;42.872;25.494;2023-07-31T02:45:01;22.73;;;20.52;;
33184;SDS011;19550;42.872;25.494;2023-07-31T02:47:28;23.13;;;21.02;;
33184;SDS011;19550;42.872;25.494;2023-07-31T02:49:57;22.35;;;20.25;;
33184;SDS011;19550;42.872;25.494;2023-07-31T02:52:24;23.53;;;21.30;;
33184;SDS011;19550;42.872;25.494;2023-07-31T02:54:51;23.17;;;20.95;;
33184;SDS011;19550;42.872;25.494;2023-07-31T02:57:18;24.67;;;22.27;;
33184;SDS011;19550;42.872;25.494;2023-07-31T02:59:45;26.15;;;23.15;;
33184;SDS011;19550;42.872;25.494;2023-07-31T03:02:12;23.23;;;20.77;;
33184;SDS011;19550;42.872;25.494;2023-07-31T03:04:39;21.75;;;19.75;;
33184;SDS011;19550;42.872;25.494;2023-07-31T03:07:07;23.77;;;21.48;;
33184;SDS011;19550;42.872;25.494;2023-07-31T03:09:34;24.25;;;21.95;;
33184;SDS011;19550;42.872;25.494;2023-07-31T03:12:01;26.05;;;22.63;;
33184;SDS011;19550;42.872;25.494;2023-07-31T03:14:28;25.98;;;23.58;;
33184;SDS011;19550;42.872;25.494;2023-07-31T03:16:55;27.00;;;24.48;;
33184;SDS011;19550;42.872;25.494;2023-07-31T03:19:22;27.10;;;24.40;;
33184;SDS011;19550;42.872;25.494;2023-07-31T03:21:49;26.33;;;23.73;;
33184;SDS011;19550;42.872;25.494;2023-07-31T03:24:17;26.48;;;24.08;;
33184;SDS011;19550;42.872;25.494;2023-07-31T03:26:43;26.13;;;23.67;;
33184;SDS011;19550;42.872;25.494;2023-07-31T03:29:10;25.27;;;22.98;;
33184;SDS011;19550;42.872;25.494;2023-07-31T03:31:37;26.30;;;23.58;;
33184;SDS011;19550;42.872;25.494;2023-07-31T03:34:04;28.38;;;25.75;;
33184;SDS011;19550;42.872;25.494;2023-07-31T03:36:31;27.52;;;24.98;;
33184;SDS011;19550;42.872;25.494;2023-07-31T03:38:58;27.20;;;24.50;;
33184;SDS011;19550;42.872;25.494;2023-07-31T03:41:26;26.38;;;24.05;;
33184;SDS011;19550;42.872;25.494;2023-07-31T03:43:53;26.88;;;24.27;;
33184;SDS011;19550;42.872;25.494;2023-07-31T03:46:21;27.05;;;24.20;;
33184;SDS011;19550;42.872;25.494;2023-07-31T03:48:48;26.83;;;24.20;;
33184;SDS011;19550;42.872;25.494;2023-07-31T03:51:15;28.95;;;26.05;;
33184;SDS011;19550;42.872;25.494;2023-07-31T03:53:42;28.70;;;26.08;;
33184;SDS011;19550;42.872;25.494;2023-07-31T03:56:08;28.33;;;25.63;;
33184;SDS011;19550;42.872;25.494;2023-07-31T03:58:37;28.83;;;26.02;;
33184;SDS011;19550;42.872;25.494;2023-07-31T04:01:03;27.30;;;24.80;;
33184;SDS011;19550;42.872;25.494;2023-07-31T04:03:31;28.52;;;25.80;;
33184;SDS011;19550;42.872;25.494;2023-07-31T04:05:58;28.08;;;25.48;;
33184;SDS011;19550;42.872;25.494;2023-07-31T04:08:26;27.35;;;24.85;;
33184;SDS011;19550;42.872;25.494;2023-07-31T04:10:53;29.98;;;27.27;;
33184;SDS011;19550;42.872;25.494;2023-07-31T04:13:21;31.58;;;28.20;;
33184;SDS011;19550;42.872;25.494;2023-07-31T04:15:50;28.98;;;25.75;;
33184;SDS011;19550;42.872;25.494;2023-07-31T04:18:16;30.05;;;27.05;;
33184;SDS011;19550;42.872;25.494;2023-07-31T04:20:43;30.25;;;27.33;;
33184;SDS011;19550;42.872;25.494;2023-07-31T04:23:10;38.22;;;34.40;;
33184;SDS011;19550;42.872;25.494;2023-07-31T04:25:38;33.78;;;30.42;;
33184;SDS011;19550;42.872;25.494;2023-07-31T04:28:05;35.83;;;32.20;;
33184;SDS011;19550;42.872;25.494;2023-07-31T04:30:32;31.92;;;28.58;;
33184;SDS011;19550;42.872;25.494;2023-07-31T04:33:01;28.98;;;25.98;;
33184;SDS011;19550;42.872;25.494;2023-07-31T04:35:28;29.50;;;26.55;;
33184;SDS011;19550;42.872;25.494;2023-07-31T04:37:54;30.00;;;26.98;;
33184;SDS011;19550;42.872;25.494;2023-07-31T04:40:21;26.85;;;23.77;;
33184;SDS011;19550;42.872;25.494;2023-07-31T04:42:48;27.00;;;24.27;;
33184;SDS011;19550;42.872;25.494;2023-07-31T04:45:15;25.55;;;23.13;;
33184;SDS011;19550;42.872;25.494;2023-07-31T04:47:42;23.67;;;21.48;;
33184;SDS011;19550;42.872;25.494;2023-07-31T04:50:10;25.00;;;22.38;;
33184;SDS011;19550;42.872;25.494;2023-07-31T04:52:37;23.58;;;21.33;;
33184;SDS011;19550;42.872;25.494;2023-07-31T04:55:04;23.25;;;21.05;;
33184;SDS011;19550;42.872;25.494;2023-07-31T04:57:31;23.23;;;21.02;;
33184;SDS011;19550;42.872;25.494;2023-07-31T04:59:58;25.75;;;21.17;;
33184;SDS011;19550;42.872;25.494;2023-07-31T05:02:24;21.65;;;19.63;;
33184;SDS011;19550;42.872;25.494;2023-07-31T05:04:51;21.70;;;19.45;;
33184;SDS011;19550;42.872;25.494;2023-07-31T05:07:19;22.00;;;19.88;;
33184;SDS011;19550;42.872;25.494;2023-07-31T05:09:46;21.67;;;19.55;;
33184;SDS011;19550;42.872;25.494;2023-07-31T05:12:13;21.30;;;19.33;;
33184;SDS011;19550;42.872;25.494;2023-07-31T05:14:40;24.85;;;21.88;;
33184;SDS011;19550;42.872;25.494;2023-07-31T05:17:07;23.00;;;20.25;;
33184;SDS011;19550;42.872;25.494;2023-07-31T05:19:33;20.45;;;18.55;;
33184;SDS011;19550;42.872;25.494;2023-07-31T05:22:00;23.30;;;20.70;;
33184;SDS011;19550;42.872;25.494;2023-07-31T05:24:28;23.13;;;20.70;;
33184;SDS011;19550;42.872;25.494;2023-07-31T05:26:55;24.35;;;21.83;;
33184;SDS011;19550;42.872;25.494;2023-07-31T05:29:22;26.17;;;21.33;;
33184;SDS011;19550;42.872;25.494;2023-07-31T05:31:49;27.73;;;22.17;;
33184;SDS011;19550;42.872;25.494;2023-07-31T05:34:15;26.05;;;23.55;;
33184;SDS011;19550;42.872;25.494;2023-07-31T05:36:42;26.50;;;23.70;;
33184;SDS011;19550;42.872;25.494;2023-07-31T05:39:09;27.73;;;24.88;;
33184;SDS011;19550;42.872;25.494;2023-07-31T05:41:37;26.92;;;24.17;;
33184;SDS011;19550;42.872;25.494;2023-07-31T05:44:04;25.08;;;22.40;;
33184;SDS011;19550;42.872;25.494;2023-07-31T05:46:31;27.33;;;24.52;;
33184;SDS011;19550;42.872;25.494;2023-07-31T05:48:58;26.77;;;24.27;;
33184;SDS011;19550;42.872;25.494;2023-07-31T05:51:26;25.45;;;22.73;;
33184;SDS011;19550;42.872;25.494;2023-07-31T05:53:52;28.15;;;22.70;;
33184;SDS011;19550;42.872;25.494;2023-07-31T05:56:19;27.25;;;24.55;;
33184;SDS011;19550;42.872;25.494;2023-07-31T05:58:48;27.10;;;24.42;;
33184;SDS011;19550;42.872;25.494;2023-07-31T06:01:15;27.13;;;24.53;;
33184;SDS011;19550;42.872;25.494;2023-07-31T06:03:42;26.70;;;24.02;;
33184;SDS011;19550;42.872;25.494;2023-07-31T06:06:09;26.95;;;24.38;;
33184;SDS011;19550;42.872;25.494;2023-07-31T06:08:36;25.08;;;22.48;;
33184;SDS011;19550;42.872;25.494;2023-07-31T06:11:03;22.98;;;20.67;;
33184;SDS011;19550;42.872;25.494;2023-07-31T06:13:30;26.35;;;23.60;;
33184;SDS011;19550;42.872;25.494;2023-07-31T06:15:59;28.38;;;25.58;;
33184;SDS011;19550;42.872;25.494;2023-07-31T06:18:30;25.42;;;23.05;;
33184;SDS011;19550;42.872;25.494;2023-07-31T06:20:57;22.02;;;19.85;;
33184;SDS011;19550;42.872;25.494;2023-07-31T06:23:24;21.52;;;19.42;;
33184;SDS011;19550;42.872;25.494;2023-07-31T06:25:50;24.38;;;22.13;;
33184;SDS011;19550;42.872;25.494;2023-07-31T06:28:17;21.92;;;19.83;;
33184;SDS011;19550;42.872;25.494;2023-07-31T06:30:44;22.75;;;20.55;;
33184;SDS011;19550;42.872;25.494;2023-07-31T06:33:12;21.70;;;19.50;;
33184;SDS011;19550;42.872;25.494;2023-07-31T06:35:39;20.65;;;18.48;;
33184;SDS011;19550;42.872;25.494;2023-07-31T06:38:06;20.45;;;18.35;;
33184;SDS011;19550;42.872;25.494;2023-07-31T06:40:33;21.27;;;19.17;;
33184;SDS011;19550;42.872;25.494;2023-07-31T06:42:59;21.17;;;19.20;;
33184;SDS011;19550;42.872;25.494;2023-07-31T06:45:32;21.83;;;19.63;;
33184;SDS011;19550;42.872;25.494;2023-07-31T06:48:00;21.80;;;19.60;;
33184;SDS011;19550;42.872;25.494;2023-07-31T06:50:28;25.63;;;18.63;;
33184;SDS011;19550;42.872;25.494;2023-07-31T06:52:55;19.13;;;17.33;;
33184;SDS011;19550;42.872;25.494;2023-07-31T06:55:22;20.80;;;18.60;;
33184;SDS011;19550;42.872;25.494;2023-07-31T06:57:50;19.40;;;17.50;;
33184;SDS011;19550;42.872;25.494;2023-07-31T07:00:19;21.27;;;19.00;;
33184;SDS011;19550;42.872;25.494;2023-07-31T07:02:46;22.23;;;19.55;;
33184;SDS011;19550;42.872;25.494;2023-07-31T07:05:14;22.98;;;20.77;;
33184;SDS011;19550;42.872;25.494;2023-07-31T07:07:42;21.33;;;19.02;;
33184;SDS011;19550;42.872;25.494;2023-07-31T07:10:09;22.20;;;19.77;;
33184;SDS011;19550;42.872;25.494;2023-07-31T07:12:36;23.05;;;20.02;;
33184;SDS011;19550;42.872;25.494;2023-07-31T07:15:04;21.20;;;19.08;;
33184;SDS011;19550;42.872;25.494;2023-07-31T07:17:31;22.27;;;19.98;;
33184;SDS011;19550;42.872;25.494;2023-07-31T07:19:58;20.30;;;18.20;;
33184;SDS011;19550;42.872;25.494;2023-07-31T07:22:25;21.75;;;19.25;;
33184;SDS011;19550;42.872;25.494;2023-07-31T07:24:54;22.83;;;20.45;;
33184;SDS011;19550;42.872;25.494;2023-07-31T07:27:21;23.20;;;20.83;;
33184;SDS011;19550;42.872;25.494;2023-07-31T07:29:49;23.48;;;21.17;;
33184;SDS011;19550;42.872;25.494;2023-07-31T07:32:16;21.85;;;19.60;;
33184;SDS011;19550;42.872;25.494;2023-07-31T07:34:43;21.70;;;19.55;;
33184;SDS011;19550;42.872;25.494;2023-07-31T07:37:11;21.33;;;19.23;;
33184;SDS011;19550;42.872;25.494;2023-07-31T07:39:38;21.00;;;18.90;;
33184;SDS011;19550;42.872;25.494;2023-07-31T07:42:06;18.35;;;16.45;;
33184;SDS011;19550;42.872;25.494;2023-07-31T07:44:33;19.02;;;17.13;;
33184;SDS011;19550;42.872;25.494;2023-07-31T07:46:59;18.77;;;16.77;;
33184;SDS011;19550;42.872;25.494;2023-07-31T07:49:26;18.08;;;16.25;;
33184;SDS011;19550;42.872;25.494;2023-07-31T07:51:53;19.73;;;17.65;;
33184;SDS011;19550;42.872;25.494;2023-07-31T07:54:20;20.50;;;17.23;;
33184;SDS011;19550;42.872;25.494;2023-07-31T07:56:47;18.38;;;16.52;;
33184;SDS011;19550;42.872;25.494;2023-07-31T07:59:16;17.63;;;15.77;;
33184;SDS011;19550;42.872;25.494;2023-07-31T08:01:43;17.73;;;15.95;;
33184;SDS011;19550;42.872;25.494;2023-07-31T08:04:09;18.30;;;16.42;;
33184;SDS011;19550;42.872;25.494;2023-07-31T08:06:36;17.45;;;15.45;;
33184;SDS011;19550;42.872;25.494;2023-07-31T08:09:03;17.17;;;15.38;;
33184;SDS011;19550;42.872;25.494;2023-07-31T08:11:31;17.45;;;15.65;;
33184;SDS011;19550;42.872;25.494;2023-07-31T08:13:58;16.40;;;14.75;;
33184;SDS011;19550;42.872;25.494;2023-07-31T08:16:26;15.85;;;14.18;;
33184;SDS011;19550;42.872;25.494;2023-07-31T08:18:54;16.37;;;14.67;;
33184;SDS011;19550;42.872;25.494;2023-07-31T08:21:21;16.35;;;14.65;;
33184;SDS011;19550;42.872;25.494;2023-07-31T08:23:48;16.33;;;14.73;;
33184;SDS011;19550;42.872;25.494;2023-07-31T08:26:15;18.98;;;16.83;;
33184;SDS011;19550;42.872;25.494;2023-07-31T08:28:42;15.95;;;14.35;;
33184;SDS011;19550;42.872;25.494;2023-07-31T08:31:09;14.80;;;13.30;;
33184;SDS011;19550;42.872;25.494;2023-07-31T08:33:37;16.38;;;13.73;;
33184;SDS011;19550;42.872;25.494;2023-07-31T08:36:05;15.40;;;13.83;;
33184;SDS011;19550;42.872;25.494;2023-07-31T08:38:32;14.40;;;12.90;;
33184;SDS011;19550;42.872;25.494;2023-07-31T08:40:58;12.20;;;11.00;;
33184;SDS011;19550;42.872;25.494;2023-07-31T08:43:26;12.30;;;11.10;;
33184;SDS011;19550;42.872;25.494;2023-07-31T08:45:53;12.73;;;11.43;;
33184;SDS011;19550;42.872;25.494;2023-07-31T08:48:21;14.52;;;10.90;;
33184;SDS011;19550;42.872;25.494;2023-07-31T08:50:50;11.40;;;10.02;;
33184;SDS011;19550;42.872;25.494;2023-07-31T08:53:18;10.30;;;9.30;;
33184;SDS011;19550;42.872;25.494;2023-07-31T08:55:45;11.93;;;10.73;;
33184;SDS011;19550;42.872;25.494;2023-07-31T08:58:13;11.45;;;10.23;;
33184;SDS011;19550;42.872;25.494;2023-07-31T09:00:40;11.77;;;9.80;;
33184;SDS011;19550;42.872;25.494;2023-07-31T09:03:09;10.93;;;9.52;;
33184;SDS011;19550;42.872;25.494;2023-07-31T09:05:41;10.60;;;9.38;;
33184;SDS011;19550;42.872;25.494;2023-07-31T09:08:10;10.75;;;9.65;;
33184;SDS011;19550;42.872;25.494;2023-07-31T09:10:40;12.00;;;9.55;;
33184;SDS011;19550;42.872;25.494;2023-07-31T09:13:08;9.73;;;8.73;;
33184;SDS011;19550;42.872;25.494;2023-07-31T09:15:35;9.43;;;8.43;;
33184;SDS011;19550;42.872;25.494;2023-07-31T09:18:04;8.90;;;7.78;;
33184;SDS011;19550;42.872;25.494;2023-07-31T09:20:32;9.30;;;8.40;;
33184;SDS011;19550;42.872;25.494;2023-07-31T09:23:05;9.85;;;8.80;;
33184;SDS011;19550;42.872;25.494;2023-07-31T09:25:38;9.00;;;8.10;;
33184;SDS011;19550;42.872;25.494;2023-07-31T09:28:06;10.25;;;8.07;;
33184;SDS011;19550;42.872;25.494;2023-07-31T09:30:44;12.82;;;8.85;;
33184;SDS011;19550;42.872;25.494;2023-07-31T09:33:14;9.93;;;8.93;;
33184;SDS011;19550;42.872;25.494;2023-07-31T09:35:41;8.48;;;7.68;;
33184;SDS011;19550;42.872;25.494;2023-07-31T09:38:08;8.48;;;7.68;;
33184;SDS011;19550;42.872;25.494;2023-07-31T09:40:38;8.75;;;7.78;;
33184;SDS011;19550;42.872;25.494;2023-07-31T09:43:06;9.52;;;7.65;;
33184;SDS011;19550;42.872;25.494;2023-07-31T09:45:35;8.85;;;7.82;;
33184;SDS011;19550;42.872;25.494;2023-07-31T09:48:06;9.33;;;8.00;;
33184;SDS011;19550;42.872;25.494;2023-07-31T09:50:36;9.30;;;7.85;;
33184;SDS011;19550;42.872;25.494;2023-07-31T09:53:04;8.82;;;7.85;;
33184;SDS011;19550;42.872;25.494;2023-07-31T09:55:31;7.43;;;6.47;;
33184;SDS011;19550;42.872;25.494;2023-07-31T09:58:00;8.00;;;7.20;;
33184;SDS011;19550;42.872;25.494;2023-07-31T10:00:30;12.13;;;7.30;;
33184;SDS011;19550;42.872;25.494;2023-07-31T10:02:58;7.22;;;6.53;;
33184;SDS011;19550;42.872;25.494;2023-07-31T10:05:26;8.40;;;7.38;;
33184;SDS011;19550;42.872;25.494;2023-07-31T10:07:57;7.75;;;6.95;;
33184;SDS011;19550;42.872;25.494;2023-07-31T10:10:24;8.05;;;6.85;;
33184;SDS011;19550;42.872;25.494;2023-07-31T10:12:52;7.05;;;6.35;;
33184;SDS011;19550;42.872;25.494;2023-07-31T10:15:21;7.53;;;6.80;;
33184;SDS011;19550;42.872;25.494;2023-07-31T10:17:49;9.57;;;6.80;;
33184;SDS011;19550;42.872;25.494;2023-07-31T10:20:16;7.45;;;6.60;;
33184;SDS011;19550;42.872;25.494;2023-07-31T10:22:43;8.88;;;6.70;;
33184;SDS011;19550;42.872;25.494;2023-07-31T10:25:12;7.70;;;6.38;;
33184;SDS011;19550;42.872;25.494;2023-07-31T10:27:39;8.57;;;6.10;;
33184;SDS011;19550;42.872;25.494;2023-07-31T10:30:06;7.30;;;5.82;;
33184;SDS011;19550;42.872;25.494;2023-07-31T10:32:37;6.22;;;5.63;;
33184;SDS011;19550;42.872;25.494;2023-07-31T10:35:06;7.05;;;5.35;;
33184;SDS011;19550;42.872;25.494;2023-07-31T10:37:36;6.30;;;5.70;;
33184;SDS011;19550;42.872;25.494;2023-07-31T10:40:05;6.05;;;5.45;;
33184;SDS011;19550;42.872;25.494;2023-07-31T10:42:36;5.85;;;5.25;;
33184;SDS011;19550;42.872;25.494;2023-07-31T10:45:05;5.32;;;4.85;;
33184;SDS011;19550;42.872;25.494;2023-07-31T10:47:39;5.53;;;5.00;;
33184;SDS011;19550;42.872;25.494;2023-07-31T10:50:13;6.47;;;5.13;;
33184;SDS011;19550;42.872;25.494;2023-07-31T10:52:44;6.65;;;5.40;;
33184;SDS011;19550;42.872;25.494;2023-07-31T10:55:14;5.47;;;4.97;;
33184;SDS011;19550;42.872;25.494;2023-07-31T10:57:44;6.13;;;5.47;;
33184;SDS011;19550;42.872;25.494;2023-07-31T11:00:17;5.80;;;5.18;;
33184;SDS011;19550;42.872;25.494;2023-07-31T11:02:57;5.57;;;5.00;;
33184;SDS011;19550;42.872;25.494;2023-07-31T11:05:47;8.13;;;4.72;;
33184;SDS011;19550;42.872;25.494;2023-07-31T11:08:17;6.13;;;5.25;;
33184;SDS011;19550;42.872;25.494;2023-07-31T11:10:46;7.18;;;5.38;;
33184;SDS011;19550;42.872;25.494;2023-07-31T11:13:14;6.17;;;5.20;;
33184;SDS011;19550;42.872;25.494;2023-07-31T11:15:41;5.60;;;5.10;;
33184;SDS011;19550;42.872;25.494;2023-07-31T11:18:09;7.30;;;4.82;;
33184;SDS011;19550;42.872;25.494;2023-07-31T11:20:37;5.60;;;5.10;;
33184;SDS011;19550;42.872;25.494;2023-07-31T11:23:06;6.15;;;5.10;;
33184;SDS011;19550;42.872;25.494;2023-07-31T11:25:34;5.68;;;4.97;;
33184;SDS011;19550;42.872;25.494;2023-07-31T11:28:04;5.72;;;5.20;;
33184;SDS011;19550;42.872;25.494;2023-07-31T11:30:32;6.60;;;4.75;;
33184;SDS011;19550;42.872;25.494;2023-07-31T11:33:00;6.22;;;5.20;;
33184;SDS011;19550;42.872;25.494;2023-07-31T11:37:57;7.40;;;4.15;;
33184;SDS011;19550;42.872;25.494;2023-07-31T11:40:24;6.22;;;5.68;;
33184;SDS011;19550;42.872;25.494;2023-07-31T11:45:21;7.45;;;5.05;;
33184;SDS011;19550;42.872;25.494;2023-07-31T11:47:51;5.70;;;4.95;;
33184;SDS011;19550;42.872;25.494;2023-07-31T11:50:18;5.90;;;5.40;;
33184;SDS011;19550;42.872;25.494;2023-07-31T11:52:47;5.57;;;4.95;;
33184;SDS011;19550;42.872;25.494;2023-07-31T11:55:16;8.20;;;5.00;;
33184;SDS011;19550;42.872;25.494;2023-07-31T11:57:43;5.50;;;5.00;;
33184;SDS011;19550;42.872;25.494;2023-07-31T12:00:12;5.50;;;5.00;;
33184;SDS011;19550;42.872;25.494;2023-07-31T12:02:40;6.55;;;4.95;;
33184;SDS011;19550;42.872;25.494;2023-07-31T12:05:10;4.95;;;4.55;;
33184;SDS011;19550;42.872;25.494;2023-07-31T12:07:45;5.95;;;5.07;;
33184;SDS011;19550;42.872;25.494;2023-07-31T12:10:27;4.07;;;3.78;;
33184;SDS011;19550;42.872;25.494;2023-07-31T12:12:55;4.20;;;3.80;;
33184;SDS011;19550;42.872;25.494;2023-07-31T12:15:33;4.03;;;3.72;;
33184;SDS011;19550;42.872;25.494;2023-07-31T12:18:03;4.40;;;4.00;;
33184;SDS011;19550;42.872;25.494;2023-07-31T12:20:31;4.13;;;3.72;;
33184;SDS011;19550;42.872;25.494;2023-07-31T12:23:00;4.80;;;4.30;;
33184;SDS011;19550;42.872;25.494;2023-07-31T12:25:30;5.00;;;4.50;;
33184;SDS011;19550;42.872;25.494;2023-07-31T12:28:03;4.95;;;3.83;;
33184;SDS011;19550;42.872;25.494;2023-07-31T12:30:32;4.95;;;4.45;;
33184;SDS011;19550;42.872;25.494;2023-07-31T12:33:02;5.93;;;5.13;;
33184;SDS011;19550;42.872;25.494;2023-07-31T12:35:34;4.72;;;4.32;;
33184;SDS011;19550;42.872;25.494;2023-07-31T12:38:04;4.78;;;4.38;;
33184;SDS011;19550;42.872;25.494;2023-07-31T12:40:30;5.00;;;4.60;;
33184;SDS011;19550;42.872;25.494;2023-07-31T12:42:58;6.55;;;4.65;;
33184;SDS011;19550;42.872;25.494;2023-07-31T12:45:27;5.32;;;4.82;;
33184;SDS011;19550;42.872;25.494;2023-07-31T12:47:53;4.97;;;4.45;;
33184;SDS011;19550;42.872;25.494;2023-07-31T12:50:20;5.32;;;4.82;;
33184;SDS011;19550;42.872;25.494;2023-07-31T12:52:47;6.50;;;4.80;;
33184;SDS011;19550;42.872;25.494;2023-07-31T12:55:15;6.28;;;4.90;;
33184;SDS011;19550;42.872;25.494;2023-07-31T12:57:43;6.05;;;5.00;;
33184;SDS011;19550;42.872;25.494;2023-07-31T13:00:10;5.40;;;4.90;;
33184;SDS011;19550;42.872;25.494;2023-07-31T13:02:38;5.18;;;4.72;;
33184;SDS011;19550;42.872;25.494;2023-07-31T13:05:05;5.50;;;4.43;;
33184;SDS011;19550;42.872;25.494;2023-07-31T13:07:33;6.65;;;5.20;;
33184;SDS011;19550;42.872;25.494;2023-07-31T13:09:59;5.28;;;4.80;;
33184;SDS011;19550;42.872;25.494;2023-07-31T13:12:28;5.72;;;5.13;;
33184;SDS011;19550;42.872;25.494;2023-07-31T13:14:55;5.72;;;5.22;;
33184;SDS011;19550;42.872;25.494;2023-07-31T13:17:21;5.88;;;5.00;;
33184;SDS011;19550;42.872;25.494;2023-07-31T13:19:48;5.88;;;5.30;;
33184;SDS011;19550;42.872;25.494;2023-07-31T13:22:15;5.50;;;5.00;;
33184;SDS011;19550;42.872;25.494;2023-07-31T13:24:42;5.10;;;4.70;;
33184;SDS011;19550;42.872;25.494;2023-07-31T13:27:08;5.47;;;4.97;;
33184;SDS011;19550;42.872;25.494;2023-07-31T13:29:37;5.63;;;5.10;;
33184;SDS011;19550;42.872;25.494;2023-07-31T13:32:04;6.70;;;5.43;;
33184;SDS011;19550;42.872;25.494;2023-07-31T13:34:31;6.03;;;5.18;;
33184;SDS011;19550;42.872;25.494;2023-07-31T13:36:58;5.78;;;5.05;;
33184;SDS011;19550;42.872;25.494;2023-07-31T13:39:24;5.80;;;5.30;;
33184;SDS011;19550;42.872;25.494;2023-07-31T13:41:51;9.32;;;5.07;;
33184;SDS011;19550;42.872;25.494;2023-07-31T13:44:18;5.45;;;4.95;;
33184;SDS011;19550;42.872;25.494;2023-07-31T13:46:46;5.45;;;4.95;;
33184;SDS011;19550;42.872;25.494;2023-07-31T13:49:13;5.18;;;4.72;;
33184;SDS011;19550;42.872;25.494;2023-07-31T13:51:40;5.82;;;5.32;;
33184;SDS011;19550;42.872;25.494;2023-07-31T13:54:07;5.93;;;5.15;;
33184;SDS011;19550;42.872;25.494;2023-07-31T13:56:36;6.10;;;5.43;;
33184;SDS011;19550;42.872;25.494;2023-07-31T13:59:03;4.97;;;4.57;;
33184;SDS011;19550;42.872;25.494;2023-07-31T14:01:30;7.60;;;5.05;;
33184;SDS011;19550;42.872;25.494;2023-07-31T14:03:58;10.45;;;5.00;;
33184;SDS011;19550;42.872;25.494;2023-07-31T14:06:25;6.53;;;4.65;;
33184;SDS011;19550;42.872;25.494;2023-07-31T14:08:52;7.55;;;5.35;;
33184;SDS011;19550;42.872;25.494;2023-07-31T14:11:19;6.05;;;4.82;;
33184;SDS011;19550;42.872;25.494;2023-07-31T14:13:46;5.78;;;5.18;;
33184;SDS011;19550;42.872;25.494;2023-07-31T14:16:13;5.35;;;4.85;;
33184;SDS011;19550;42.872;25.494;2023-07-31T14:18:40;7.88;;;5.38;;
33184;SDS011;19550;42.872;25.494;2023-07-31T14:21:08;4.93;;;4.53;;
33184;SDS011;19550;42.872;25.494;2023-07-31T14:23:35;6.63;;;5.10;;
33184;SDS011;19550;42.872;25.494;2023-07-31T14:26:02;5.20;;;4.80;;
33184;SDS011;19550;42.872;25.494;2023-07-31T14:28:29;7.30;;;5.03;;
33184;SDS011;19550;42.872;25.494;2023-07-31T14:30:56;5.50;;;5.00;;